sensor_id;sensor_type;location;lat;lon;timestamp;temperature;humidity
18934;DHT22;9599;53.706;10.384;2023-07-20T00:00:47;14.70;99.90
18934;DHT22;9599;53.706;10.384;2023-07-20T00:03:20;14.70;99.90
18934;DHT22;9599;53.706;10.384;2023-07-20T00:05:49;14.70;99.90
18934;DHT22;9599;53.706;10.384;2023-07-20T00:08:18;14.70;99.90
18934;DHT22;9599;53.706;10.384;2023-07-20T00:10:46;14.80;99.90
18934;DHT22;9599;53.706;10.384;2023-07-20T00:13:14;14.80;99.90
18934;DHT22;9599;53.706;10.384;2023-07-20T00:15:46;14.80;99.90
18934;DHT22;9599;53.706;10.384;2023-07-20T00:18:14;14.90;99.90
18934;DHT22;9599;53.706;10.384;2023-07-20T00:20:42;14.90;99.90
18934;DHT22;9599;53.706;10.384;2023-07-20T00:23:10;14.90;99.90
18934;DHT22;9599;53.706;10.384;2023-07-20T00:25:38;15.00;99.90
18934;DHT22;9599;53.706;10.384;2023-07-20T00:28:06;14.90;99.90
18934;DHT22;9599;53.706;10.384;2023-07-20T00:30:34;15.00;99.90
18934;DHT22;9599;53.706;10.384;2023-07-20T00:33:04;15.00;99.90
18934;DHT22;9599;53.706;10.384;2023-07-20T00:35:31;15.00;99.90
18934;DHT22;9599;53.706;10.384;2023-07-20T00:37:59;15.00;99.90
18934;DHT22;9599;53.706;10.384;2023-07-20T00:40:27;15.00;99.90
18934;DHT22;9599;53.706;10.384;2023-07-20T00:42:55;15.00;99.90
18934;DHT22;9599;53.706;10.384;2023-07-20T00:45:24;15.00;99.90
18934;DHT22;9599;53.706;10.384;2023-07-20T00:47:53;15.00;99.90
18934;DHT22;9599;53.706;10.384;2023-07-20T00:50:23;15.00;99.90
18934;DHT22;9599;53.706;10.384;2023-07-20T00:52:51;15.00;99.90
18934;DHT22;9599;53.706;10.384;2023-07-20T00:55:19;15.10;99.90
18934;DHT22;9599;53.706;10.384;2023-07-20T00:57:47;15.10;99.90
18934;DHT22;9599;53.706;10.384;2023-07-20T01:00:16;15.10;99.90
18934;DHT22;9599;53.706;10.384;2023-07-20T01:02:44;15.10;99.90
18934;DHT22;9599;53.706;10.384;2023-07-20T01:05:13;15.10;99.90
18934;DHT22;9599;53.706;10.384;2023-07-20T01:07:49;15.10;99.90
18934;DHT22;9599;53.706;10.384;2023-07-20T01:10:28;15.20;99.90
18934;DHT22;9599;53.706;10.384;2023-07-20T01:12:57;15.10;99.90
18934;DHT22;9599;53.706;10.384;2023-07-20T01:15:25;15.10;99.90
18934;DHT22;9599;53.706;10.384;2023-07-20T01:17:55;15.10;99.90
18934;DHT22;9599;53.706;10.384;2023-07-20T01:20:24;15.10;99.90
18934;DHT22;9599;53.706;10.384;2023-07-20T01:23:17;15.10;99.90
18934;DHT22;9599;53.706;10.384;2023-07-20T01:26:02;15.10;99.90
18934;DHT22;9599;53.706;10.384;2023-07-20T01:31:41;15.10;99.90
18934;DHT22;9599;53.706;10.384;2023-07-20T01:34:11;15.10;99.90
18934;DHT22;9599;53.706;10.384;2023-07-20T01:36:42;15.00;99.90
18934;DHT22;9599;53.706;10.384;2023-07-20T01:39:11;15.00;99.90
18934;DHT22;9599;53.706;10.384;2023-07-20T01:41:39;15.00;99.90
18934;DHT22;9599;53.706;10.384;2023-07-20T01:44:08;15.00;99.90
18934;DHT22;9599;53.706;10.384;2023-07-20T01:46:37;15.00;99.90
18934;DHT22;9599;53.706;10.384;2023-07-20T01:49:06;15.10;99.90
18934;DHT22;9599;53.706;10.384;2023-07-20T01:51:34;15.10;99.90
18934;DHT22;9599;53.706;10.384;2023-07-20T01:54:02;15.10;99.90
18934;DHT22;9599;53.706;10.384;2023-07-20T01:56:31;15.10;99.90
18934;DHT22;9599;53.706;10.384;2023-07-20T01:58:59;15.00;99.90
18934;DHT22;9599;53.706;10.384;2023-07-20T02:01:27;15.00;99.90
18934;DHT22;9599;53.706;10.384;2023-07-20T02:03:56;15.00;99.90
18934;DHT22;9599;53.706;10.384;2023-07-20T02:06:25;14.90;99.90
18934;DHT22;9599;53.706;10.384;2023-07-20T02:08:53;14.90;99.90
18934;DHT22;9599;53.706;10.384;2023-07-20T02:11:22;14.90;99.90
18934;DHT22;9599;53.706;10.384;2023-07-20T02:13:50;14.90;99.90
18934;DHT22;9599;53.706;10.384;2023-07-20T02:16:18;15.00;99.90
18934;DHT22;9599;53.706;10.384;2023-07-20T02:18:47;15.00;99.90
18934;DHT22;9599;53.706;10.384;2023-07-20T02:21:15;15.00;99.90
18934;DHT22;9599;53.706;10.384;2023-07-20T02:23:44;15.00;99.90
18934;DHT22;9599;53.706;10.384;2023-07-20T02:26:12;15.00;99.90
18934;DHT22;9599;53.706;10.384;2023-07-20T02:28:40;15.00;99.90
18934;DHT22;9599;53.706;10.384;2023-07-20T02:31:08;15.00;99.90
18934;DHT22;9599;53.706;10.384;2023-07-20T02:33:36;15.00;99.90
18934;DHT22;9599;53.706;10.384;2023-07-20T02:36:04;15.00;99.90
18934;DHT22;9599;53.706;10.384;2023-07-20T02:38:32;14.90;99.90
18934;DHT22;9599;53.706;10.384;2023-07-20T02:41:02;15.00;99.90
18934;DHT22;9599;53.706;10.384;2023-07-20T02:43:30;15.00;99.90
18934;DHT22;9599;53.706;10.384;2023-07-20T02:45:58;15.00;99.90
18934;DHT22;9599;53.706;10.384;2023-07-20T02:48:26;14.90;99.90
18934;DHT22;9599;53.706;10.384;2023-07-20T02:50:53;14.90;99.90
18934;DHT22;9599;53.706;10.384;2023-07-20T02:53:22;14.90;99.90
18934;DHT22;9599;53.706;10.384;2023-07-20T02:55:49;14.90;99.90
18934;DHT22;9599;53.706;10.384;2023-07-20T02:58:19;14.90;99.90
18934;DHT22;9599;53.706;10.384;2023-07-20T03:00:47;15.00;99.90
18934;DHT22;9599;53.706;10.384;2023-07-20T03:03:14;14.90;99.90
18934;DHT22;9599;53.706;10.384;2023-07-20T03:05:43;14.90;99.90
18934;DHT22;9599;53.706;10.384;2023-07-20T03:08:11;14.90;99.90
18934;DHT22;9599;53.706;10.384;2023-07-20T03:10:39;14.90;99.90
18934;DHT22;9599;53.706;10.384;2023-07-20T03:13:08;14.90;99.90
18934;DHT22;9599;53.706;10.384;2023-07-20T03:15:37;15.00;99.90
18934;DHT22;9599;53.706;10.384;2023-07-20T03:18:05;14.90;99.90
18934;DHT22;9599;53.706;10.384;2023-07-20T03:20:35;15.00;99.90
18934;DHT22;9599;53.706;10.384;2023-07-20T03:23:03;15.00;99.90
18934;DHT22;9599;53.706;10.384;2023-07-20T03:25:31;15.00;99.90
18934;DHT22;9599;53.706;10.384;2023-07-20T03:28:00;15.00;99.90
18934;DHT22;9599;53.706;10.384;2023-07-20T03:30:28;15.00;99.90
18934;DHT22;9599;53.706;10.384;2023-07-20T03:32:57;15.00;99.90
18934;DHT22;9599;53.706;10.384;2023-07-20T03:35:25;15.00;99.90
18934;DHT22;9599;53.706;10.384;2023-07-20T03:37:53;15.10;99.90
18934;DHT22;9599;53.706;10.384;2023-07-20T03:40:21;15.00;99.90
18934;DHT22;9599;53.706;10.384;2023-07-20T03:42:51;15.00;99.90
18934;DHT22;9599;53.706;10.384;2023-07-20T03:45:19;15.00;99.90
18934;DHT22;9599;53.706;10.384;2023-07-20T03:47:47;15.00;99.90
18934;DHT22;9599;53.706;10.384;2023-07-20T03:50:17;15.00;99.90
18934;DHT22;9599;53.706;10.384;2023-07-20T03:52:45;15.00;99.90
18934;DHT22;9599;53.706;10.384;2023-07-20T03:55:13;15.00;99.90
18934;DHT22;9599;53.706;10.384;2023-07-20T03:57:41;15.00;99.90
18934;DHT22;9599;53.706;10.384;2023-07-20T04:00:11;15.00;99.90
18934;DHT22;9599;53.706;10.384;2023-07-20T04:02:41;15.10;99.90
18934;DHT22;9599;53.706;10.384;2023-07-20T04:05:10;15.10;99.90
18934;DHT22;9599;53.706;10.384;2023-07-20T04:07:39;15.10;99.90
18934;DHT22;9599;53.706;10.384;2023-07-20T04:10:08;15.20;99.90
18934;DHT22;9599;53.706;10.384;2023-07-20T04:12:36;15.20;99.90
18934;DHT22;9599;53.706;10.384;2023-07-20T04:15:05;15.30;99.90
18934;DHT22;9599;53.706;10.384;2023-07-20T04:17:33;15.30;99.90
18934;DHT22;9599;53.706;10.384;2023-07-20T04:20:02;15.30;99.90
18934;DHT22;9599;53.706;10.384;2023-07-20T04:22:30;15.40;99.90
18934;DHT22;9599;53.706;10.384;2023-07-20T04:25:00;15.30;99.90
18934;DHT22;9599;53.706;10.384;2023-07-20T04:27:28;15.30;99.90
18934;DHT22;9599;53.706;10.384;2023-07-20T04:29:58;15.30;99.90
18934;DHT22;9599;53.706;10.384;2023-07-20T04:32:27;15.30;99.90
18934;DHT22;9599;53.706;10.384;2023-07-20T04:34:55;15.30;99.90
18934;DHT22;9599;53.706;10.384;2023-07-20T04:37:24;15.20;99.90
18934;DHT22;9599;53.706;10.384;2023-07-20T04:39:52;15.20;99.90
18934;DHT22;9599;53.706;10.384;2023-07-20T04:42:21;15.20;99.90
18934;DHT22;9599;53.706;10.384;2023-07-20T04:44:49;15.30;99.90
18934;DHT22;9599;53.706;10.384;2023-07-20T04:47:17;15.30;99.90
18934;DHT22;9599;53.706;10.384;2023-07-20T04:49:46;15.30;99.90
18934;DHT22;9599;53.706;10.384;2023-07-20T04:52:14;15.30;99.90
18934;DHT22;9599;53.706;10.384;2023-07-20T04:54:43;15.30;99.90
18934;DHT22;9599;53.706;10.384;2023-07-20T04:57:12;15.40;99.90
18934;DHT22;9599;53.706;10.384;2023-07-20T04:59:47;15.50;99.90
18934;DHT22;9599;53.706;10.384;2023-07-20T05:02:15;15.50;99.90
18934;DHT22;9599;53.706;10.384;2023-07-20T05:04:46;15.40;99.90
18934;DHT22;9599;53.706;10.384;2023-07-20T05:07:14;15.40;99.90
18934;DHT22;9599;53.706;10.384;2023-07-20T05:09:42;15.50;99.90
18934;DHT22;9599;53.706;10.384;2023-07-20T05:12:10;15.40;99.90
18934;DHT22;9599;53.706;10.384;2023-07-20T05:14:39;15.50;99.90
18934;DHT22;9599;53.706;10.384;2023-07-20T05:17:09;15.60;99.90
18934;DHT22;9599;53.706;10.384;2023-07-20T05:19:37;15.80;99.90
18934;DHT22;9599;53.706;10.384;2023-07-20T05:22:10;15.90;99.90
18934;DHT22;9599;53.706;10.384;2023-07-20T05:24:38;16.10;99.90
18934;DHT22;9599;53.706;10.384;2023-07-20T05:27:07;16.20;99.90
18934;DHT22;9599;53.706;10.384;2023-07-20T05:29:35;16.20;99.90
18934;DHT22;9599;53.706;10.384;2023-07-20T05:32:04;16.30;99.90
18934;DHT22;9599;53.706;10.384;2023-07-20T05:34:34;16.30;99.90
18934;DHT22;9599;53.706;10.384;2023-07-20T05:37:11;16.20;99.90
18934;DHT22;9599;53.706;10.384;2023-07-20T05:39:41;16.40;99.90
18934;DHT22;9599;53.706;10.384;2023-07-20T05:42:08;16.50;99.90
18934;DHT22;9599;53.706;10.384;2023-07-20T05:44:37;16.70;99.90
18934;DHT22;9599;53.706;10.384;2023-07-20T05:47:07;16.80;99.90
18934;DHT22;9599;53.706;10.384;2023-07-20T05:49:37;16.60;99.90
18934;DHT22;9599;53.706;10.384;2023-07-20T05:52:05;16.60;99.90
18934;DHT22;9599;53.706;10.384;2023-07-20T05:54:33;16.70;99.90
18934;DHT22;9599;53.706;10.384;2023-07-20T05:57:03;17.00;99.90
18934;DHT22;9599;53.706;10.384;2023-07-20T05:59:31;16.90;99.90
18934;DHT22;9599;53.706;10.384;2023-07-20T06:01:59;16.80;99.90
18934;DHT22;9599;53.706;10.384;2023-07-20T06:04:27;17.10;99.90
18934;DHT22;9599;53.706;10.384;2023-07-20T06:06:56;17.30;99.90
18934;DHT22;9599;53.706;10.384;2023-07-20T06:09:24;17.40;99.90
18934;DHT22;9599;53.706;10.384;2023-07-20T06:11:53;17.60;99.90
18934;DHT22;9599;53.706;10.384;2023-07-20T06:14:21;17.50;99.90
18934;DHT22;9599;53.706;10.384;2023-07-20T06:16:49;17.50;99.90
18934;DHT22;9599;53.706;10.384;2023-07-20T06:19:17;17.50;99.90
18934;DHT22;9599;53.706;10.384;2023-07-20T06:21:45;17.50;99.90
18934;DHT22;9599;53.706;10.384;2023-07-20T06:24:14;17.80;99.90
18934;DHT22;9599;53.706;10.384;2023-07-20T06:26:42;17.90;99.90
18934;DHT22;9599;53.706;10.384;2023-07-20T06:29:10;17.90;99.90
18934;DHT22;9599;53.706;10.384;2023-07-20T06:31:38;18.10;99.90
18934;DHT22;9599;53.706;10.384;2023-07-20T06:34:06;18.00;99.90
18934;DHT22;9599;53.706;10.384;2023-07-20T06:36:34;18.10;99.90
18934;DHT22;9599;53.706;10.384;2023-07-20T06:39:02;18.20;99.90
18934;DHT22;9599;53.706;10.384;2023-07-20T06:41:34;18.70;99.90
18934;DHT22;9599;53.706;10.384;2023-07-20T06:44:05;18.80;99.90
18934;DHT22;9599;53.706;10.384;2023-07-20T06:46:34;18.50;99.90
18934;DHT22;9599;53.706;10.384;2023-07-20T06:49:02;18.60;99.90
18934;DHT22;9599;53.706;10.384;2023-07-20T06:51:33;18.70;99.90
18934;DHT22;9599;53.706;10.384;2023-07-20T06:54:01;18.50;99.90
18934;DHT22;9599;53.706;10.384;2023-07-20T06:56:32;18.40;99.90
18934;DHT22;9599;53.706;10.384;2023-07-20T06:59:01;18.60;99.90
18934;DHT22;9599;53.706;10.384;2023-07-20T07:01:30;19.20;99.90
18934;DHT22;9599;53.706;10.384;2023-07-20T07:03:58;19.40;99.90
18934;DHT22;9599;53.706;10.384;2023-07-20T07:06:26;19.30;99.90
18934;DHT22;9599;53.706;10.384;2023-07-20T07:08:55;19.00;99.90
18934;DHT22;9599;53.706;10.384;2023-07-20T07:11:25;18.60;99.90
18934;DHT22;9599;53.706;10.384;2023-07-20T07:13:53;18.50;99.90
18934;DHT22;9599;53.706;10.384;2023-07-20T07:16:25;18.60;99.90
18934;DHT22;9599;53.706;10.384;2023-07-20T07:18:54;18.90;99.90
18934;DHT22;9599;53.706;10.384;2023-07-20T07:21:26;19.10;99.90
18934;DHT22;9599;53.706;10.384;2023-07-20T07:23:54;19.30;99.90
18934;DHT22;9599;53.706;10.384;2023-07-20T07:26:24;19.30;99.90
18934;DHT22;9599;53.706;10.384;2023-07-20T07:28:52;19.30;99.90
18934;DHT22;9599;53.706;10.384;2023-07-20T07:31:20;19.50;99.90
18934;DHT22;9599;53.706;10.384;2023-07-20T07:33:50;19.40;99.90
18934;DHT22;9599;53.706;10.384;2023-07-20T07:36:19;19.40;99.90
18934;DHT22;9599;53.706;10.384;2023-07-20T07:38:47;19.20;99.90
18934;DHT22;9599;53.706;10.384;2023-07-20T07:41:35;19.20;99.90
18934;DHT22;9599;53.706;10.384;2023-07-20T07:44:04;19.10;99.90
18934;DHT22;9599;53.706;10.384;2023-07-20T07:46:32;18.90;99.90
18934;DHT22;9599;53.706;10.384;2023-07-20T07:49:01;19.10;99.90
18934;DHT22;9599;53.706;10.384;2023-07-20T07:51:29;19.10;99.90
18934;DHT22;9599;53.706;10.384;2023-07-20T07:53:57;19.00;99.90
18934;DHT22;9599;53.706;10.384;2023-07-20T07:56:25;19.30;99.90
18934;DHT22;9599;53.706;10.384;2023-07-20T07:58:53;19.60;99.90
18934;DHT22;9599;53.706;10.384;2023-07-20T08:01:21;19.80;99.90
18934;DHT22;9599;53.706;10.384;2023-07-20T08:03:49;20.00;99.90
18934;DHT22;9599;53.706;10.384;2023-07-20T08:06:19;19.70;99.90
18934;DHT22;9599;53.706;10.384;2023-07-20T08:08:47;19.50;99.90
18934;DHT22;9599;53.706;10.384;2023-07-20T08:11:15;19.40;99.90
18934;DHT22;9599;53.706;10.384;2023-07-20T08:13:44;19.60;99.90
18934;DHT22;9599;53.706;10.384;2023-07-20T08:16:13;19.90;99.90
18934;DHT22;9599;53.706;10.384;2023-07-20T08:18:41;20.10;99.90
18934;DHT22;9599;53.706;10.384;2023-07-20T08:21:09;20.30;99.90
18934;DHT22;9599;53.706;10.384;2023-07-20T08:23:38;20.10;99.90
18934;DHT22;9599;53.706;10.384;2023-07-20T08:26:06;19.90;99.90
18934;DHT22;9599;53.706;10.384;2023-07-20T08:28:34;19.60;99.90
18934;DHT22;9599;53.706;10.384;2023-07-20T08:31:05;19.60;99.90
18934;DHT22;9599;53.706;10.384;2023-07-20T08:33:34;19.20;99.90
18934;DHT22;9599;53.706;10.384;2023-07-20T08:36:02;19.20;99.90
18934;DHT22;9599;53.706;10.384;2023-07-20T08:38:30;19.20;99.90
18934;DHT22;9599;53.706;10.384;2023-07-20T08:40:59;19.50;99.90
18934;DHT22;9599;53.706;10.384;2023-07-20T08:43:31;19.90;99.90
18934;DHT22;9599;53.706;10.384;2023-07-20T08:46:01;20.00;99.90
18934;DHT22;9599;53.706;10.384;2023-07-20T08:48:31;20.10;99.90
18934;DHT22;9599;53.706;10.384;2023-07-20T08:51:00;19.90;99.90
18934;DHT22;9599;53.706;10.384;2023-07-20T08:53:29;19.60;99.90
18934;DHT22;9599;53.706;10.384;2023-07-20T08:55:59;19.20;99.90
18934;DHT22;9599;53.706;10.384;2023-07-20T08:58:29;18.60;99.90
18934;DHT22;9599;53.706;10.384;2023-07-20T09:00:58;18.10;99.90
18934;DHT22;9599;53.706;10.384;2023-07-20T09:03:29;17.70;99.90
18934;DHT22;9599;53.706;10.384;2023-07-20T09:05:57;17.70;99.90
18934;DHT22;9599;53.706;10.384;2023-07-20T09:08:25;17.70;99.90
18934;DHT22;9599;53.706;10.384;2023-07-20T09:10:53;18.10;99.90
18934;DHT22;9599;53.706;10.384;2023-07-20T09:13:25;18.40;99.90
18934;DHT22;9599;53.706;10.384;2023-07-20T09:15:54;18.80;99.90
18934;DHT22;9599;53.706;10.384;2023-07-20T09:18:26;19.30;99.90
18934;DHT22;9599;53.706;10.384;2023-07-20T09:20:58;19.50;99.90
18934;DHT22;9599;53.706;10.384;2023-07-20T09:23:31;19.60;99.90
18934;DHT22;9599;53.706;10.384;2023-07-20T09:26:00;19.70;99.90
18934;DHT22;9599;53.706;10.384;2023-07-20T09:28:29;19.90;99.90
18934;DHT22;9599;53.706;10.384;2023-07-20T09:31:15;20.00;99.90
18934;DHT22;9599;53.706;10.384;2023-07-20T09:33:44;20.00;99.90
18934;DHT22;9599;53.706;10.384;2023-07-20T09:36:15;19.80;99.90
18934;DHT22;9599;53.706;10.384;2023-07-20T09:39:03;19.70;99.90
18934;DHT22;9599;53.706;10.384;2023-07-20T09:41:39;19.70;99.90
18934;DHT22;9599;53.706;10.384;2023-07-20T09:44:14;19.90;99.90
18934;DHT22;9599;53.706;10.384;2023-07-20T09:46:46;19.70;99.90
18934;DHT22;9599;53.706;10.384;2023-07-20T09:49:17;19.40;99.90
18934;DHT22;9599;53.706;10.384;2023-07-20T09:51:48;19.00;99.90
18934;DHT22;9599;53.706;10.384;2023-07-20T09:54:17;18.80;99.90
18934;DHT22;9599;53.706;10.384;2023-07-20T09:56:47;19.10;99.90
18934;DHT22;9599;53.706;10.384;2023-07-20T09:59:17;19.40;99.90
18934;DHT22;9599;53.706;10.384;2023-07-20T10:01:46;19.60;99.90
18934;DHT22;9599;53.706;10.384;2023-07-20T10:04:16;19.80;99.90
18934;DHT22;9599;53.706;10.384;2023-07-20T10:06:49;20.00;99.90
18934;DHT22;9599;53.706;10.384;2023-07-20T10:09:19;20.00;99.90
18934;DHT22;9599;53.706;10.384;2023-07-20T10:11:50;20.10;99.90
18934;DHT22;9599;53.706;10.384;2023-07-20T10:14:41;20.10;99.90
18934;DHT22;9599;53.706;10.384;2023-07-20T10:17:13;20.20;99.90
18934;DHT22;9599;53.706;10.384;2023-07-20T10:19:44;20.30;99.90
18934;DHT22;9599;53.706;10.384;2023-07-20T10:22:19;20.30;99.90
18934;DHT22;9599;53.706;10.384;2023-07-20T10:24:51;19.90;99.90
18934;DHT22;9599;53.706;10.384;2023-07-20T10:27:22;19.70;99.90
18934;DHT22;9599;53.706;10.384;2023-07-20T10:29:53;19.80;99.90
18934;DHT22;9599;53.706;10.384;2023-07-20T10:32:22;19.90;99.90
18934;DHT22;9599;53.706;10.384;2023-07-20T10:34:51;19.90;99.90
18934;DHT22;9599;53.706;10.384;2023-07-20T10:37:50;19.90;99.90
18934;DHT22;9599;53.706;10.384;2023-07-20T10:40:31;19.80;99.90
18934;DHT22;9599;53.706;10.384;2023-07-20T10:43:02;19.40;99.90
18934;DHT22;9599;53.706;10.384;2023-07-20T10:45:40;19.00;99.90
18934;DHT22;9599;53.706;10.384;2023-07-20T10:48:19;18.50;99.90
18934;DHT22;9599;53.706;10.384;2023-07-20T10:51:08;18.20;99.90
18934;DHT22;9599;53.706;10.384;2023-07-20T10:53:36;17.90;99.90
18934;DHT22;9599;53.706;10.384;2023-07-20T10:56:08;17.80;99.90
18934;DHT22;9599;53.706;10.384;2023-07-20T10:58:39;17.90;99.90
18934;DHT22;9599;53.706;10.384;2023-07-20T11:01:13;18.20;99.90
18934;DHT22;9599;53.706;10.384;2023-07-20T11:03:49;18.70;99.90
18934;DHT22;9599;53.706;10.384;2023-07-20T11:06:32;18.80;99.90
18934;DHT22;9599;53.706;10.384;2023-07-20T11:09:06;18.90;99.90
18934;DHT22;9599;53.706;10.384;2023-07-20T11:11:37;18.90;99.90
18934;DHT22;9599;53.706;10.384;2023-07-20T11:14:08;19.50;99.90
18934;DHT22;9599;53.706;10.384;2023-07-20T11:16:41;19.80;99.90
18934;DHT22;9599;53.706;10.384;2023-07-20T11:19:17;20.30;99.90
18934;DHT22;9599;53.706;10.384;2023-07-20T11:21:50;20.20;99.90
18934;DHT22;9599;53.706;10.384;2023-07-20T11:24:30;19.70;99.90
18934;DHT22;9599;53.706;10.384;2023-07-20T11:26:59;19.40;99.90
18934;DHT22;9599;53.706;10.384;2023-07-20T11:29:27;19.00;99.90
18934;DHT22;9599;53.706;10.384;2023-07-20T11:32:02;18.90;99.90
18934;DHT22;9599;53.706;10.384;2023-07-20T11:34:32;19.10;99.90
18934;DHT22;9599;53.706;10.384;2023-07-20T11:37:01;19.70;99.90
18934;DHT22;9599;53.706;10.384;2023-07-20T11:39:33;20.30;99.90
18934;DHT22;9599;53.706;10.384;2023-07-20T11:42:01;20.60;99.90
18934;DHT22;9599;53.706;10.384;2023-07-20T11:44:29;21.20;99.90
18934;DHT22;9599;53.706;10.384;2023-07-20T11:47:03;21.00;99.90
18934;DHT22;9599;53.706;10.384;2023-07-20T11:49:35;20.60;99.90
18934;DHT22;9599;53.706;10.384;2023-07-20T11:52:05;20.00;99.90
18934;DHT22;9599;53.706;10.384;2023-07-20T11:54:34;19.10;99.90
18934;DHT22;9599;53.706;10.384;2023-07-20T11:57:03;18.30;99.90
18934;DHT22;9599;53.706;10.384;2023-07-20T11:59:32;17.70;99.90
18934;DHT22;9599;53.706;10.384;2023-07-20T12:02:02;17.30;99.90
18934;DHT22;9599;53.706;10.384;2023-07-20T12:04:31;17.10;99.90
18934;DHT22;9599;53.706;10.384;2023-07-20T12:06:59;17.20;99.90
18934;DHT22;9599;53.706;10.384;2023-07-20T12:09:27;17.30;99.90
18934;DHT22;9599;53.706;10.384;2023-07-20T12:12:15;17.50;99.90
18934;DHT22;9599;53.706;10.384;2023-07-20T12:14:43;17.70;99.90
18934;DHT22;9599;53.706;10.384;2023-07-20T12:17:13;18.00;99.90
18934;DHT22;9599;53.706;10.384;2023-07-20T12:19:41;18.20;99.90
18934;DHT22;9599;53.706;10.384;2023-07-20T12:22:09;18.20;99.90
18934;DHT22;9599;53.706;10.384;2023-07-20T12:24:38;18.20;99.90
18934;DHT22;9599;53.706;10.384;2023-07-20T12:27:06;18.50;99.90
18934;DHT22;9599;53.706;10.384;2023-07-20T12:29:34;18.40;99.90
18934;DHT22;9599;53.706;10.384;2023-07-20T12:32:05;18.40;99.90
18934;DHT22;9599;53.706;10.384;2023-07-20T12:34:34;18.40;99.90
18934;DHT22;9599;53.706;10.384;2023-07-20T12:37:04;18.60;99.90
18934;DHT22;9599;53.706;10.384;2023-07-20T12:39:32;18.60;99.90
18934;DHT22;9599;53.706;10.384;2023-07-20T12:42:00;18.70;99.90
18934;DHT22;9599;53.706;10.384;2023-07-20T12:44:28;18.80;99.90
18934;DHT22;9599;53.706;10.384;2023-07-20T12:46:56;19.00;99.90
18934;DHT22;9599;53.706;10.384;2023-07-20T12:49:24;19.10;99.90
18934;DHT22;9599;53.706;10.384;2023-07-20T12:51:53;19.20;99.90
18934;DHT22;9599;53.706;10.384;2023-07-20T12:54:21;19.20;99.90
18934;DHT22;9599;53.706;10.384;2023-07-20T12:56:49;19.30;99.90
18934;DHT22;9599;53.706;10.384;2023-07-20T12:59:20;19.40;99.90
18934;DHT22;9599;53.706;10.384;2023-07-20T13:01:48;19.90;99.90
18934;DHT22;9599;53.706;10.384;2023-07-20T13:04:16;20.20;99.90
18934;DHT22;9599;53.706;10.384;2023-07-20T13:06:44;20.30;99.90
18934;DHT22;9599;53.706;10.384;2023-07-20T13:09:13;20.30;99.90
18934;DHT22;9599;53.706;10.384;2023-07-20T13:11:41;20.40;99.90
18934;DHT22;9599;53.706;10.384;2023-07-20T13:14:09;20.50;99.90
18934;DHT22;9599;53.706;10.384;2023-07-20T13:16:38;20.60;99.90
18934;DHT22;9599;53.706;10.384;2023-07-20T13:19:06;20.70;99.90
18934;DHT22;9599;53.706;10.384;2023-07-20T13:21:34;20.90;99.90
18934;DHT22;9599;53.706;10.384;2023-07-20T13:24:05;20.60;99.90
18934;DHT22;9599;53.706;10.384;2023-07-20T13:26:34;20.30;99.90
18934;DHT22;9599;53.706;10.384;2023-07-20T13:29:02;20.20;99.90
18934;DHT22;9599;53.706;10.384;2023-07-20T13:31:31;20.30;99.90
18934;DHT22;9599;53.706;10.384;2023-07-20T13:34:01;20.40;99.90
18934;DHT22;9599;53.706;10.384;2023-07-20T13:36:30;20.20;99.90
18934;DHT22;9599;53.706;10.384;2023-07-20T13:38:59;20.00;99.90
18934;DHT22;9599;53.706;10.384;2023-07-20T13:41:27;19.80;99.90
18934;DHT22;9599;53.706;10.384;2023-07-20T13:43:57;19.30;99.90
18934;DHT22;9599;53.706;10.384;2023-07-20T13:46:25;19.10;99.90
18934;DHT22;9599;53.706;10.384;2023-07-20T13:48:57;18.60;99.90
18934;DHT22;9599;53.706;10.384;2023-07-20T13:51:25;18.20;99.90
18934;DHT22;9599;53.706;10.384;2023-07-20T13:53:55;18.10;99.90
18934;DHT22;9599;53.706;10.384;2023-07-20T13:56:23;18.00;99.90
18934;DHT22;9599;53.706;10.384;2023-07-20T13:58:51;17.90;99.90
18934;DHT22;9599;53.706;10.384;2023-07-20T14:01:21;17.80;99.90
18934;DHT22;9599;53.706;10.384;2023-07-20T14:03:52;17.80;99.90
18934;DHT22;9599;53.706;10.384;2023-07-20T14:06:21;17.70;99.90
18934;DHT22;9599;53.706;10.384;2023-07-20T14:08:52;17.80;99.90
18934;DHT22;9599;53.706;10.384;2023-07-20T14:11:20;17.90;99.90
18934;DHT22;9599;53.706;10.384;2023-07-20T14:13:51;17.90;99.90
18934;DHT22;9599;53.706;10.384;2023-07-20T14:16:21;18.00;99.90
18934;DHT22;9599;53.706;10.384;2023-07-20T14:18:51;18.20;99.90
18934;DHT22;9599;53.706;10.384;2023-07-20T14:21:23;18.40;99.90
18934;DHT22;9599;53.706;10.384;2023-07-20T14:23:52;18.60;99.90
18934;DHT22;9599;53.706;10.384;2023-07-20T14:26:20;18.90;99.90
18934;DHT22;9599;53.706;10.384;2023-07-20T14:28:49;19.00;99.90
18934;DHT22;9599;53.706;10.384;2023-07-20T14:31:17;19.30;99.90
18934;DHT22;9599;53.706;10.384;2023-07-20T14:33:47;19.50;99.90
18934;DHT22;9599;53.706;10.384;2023-07-20T14:36:16;19.50;99.90
18934;DHT22;9599;53.706;10.384;2023-07-20T14:38:45;19.60;99.90
18934;DHT22;9599;53.706;10.384;2023-07-20T14:41:13;19.50;99.90
18934;DHT22;9599;53.706;10.384;2023-07-20T14:43:41;19.40;99.90
18934;DHT22;9599;53.706;10.384;2023-07-20T14:46:09;19.50;99.90
18934;DHT22;9599;53.706;10.384;2023-07-20T14:48:37;19.60;99.90
18934;DHT22;9599;53.706;10.384;2023-07-20T14:51:06;19.70;99.90
18934;DHT22;9599;53.706;10.384;2023-07-20T14:53:34;19.90;99.90
18934;DHT22;9599;53.706;10.384;2023-07-20T14:56:03;20.00;99.90
18934;DHT22;9599;53.706;10.384;2023-07-20T14:58:31;19.90;99.90
18934;DHT22;9599;53.706;10.384;2023-07-20T15:01:02;19.80;99.90
18934;DHT22;9599;53.706;10.384;2023-07-20T15:03:31;19.90;99.90
18934;DHT22;9599;53.706;10.384;2023-07-20T15:05:59;20.00;99.90
18934;DHT22;9599;53.706;10.384;2023-07-20T15:08:29;20.20;99.90
18934;DHT22;9599;53.706;10.384;2023-07-20T15:10:57;20.30;99.90
18934;DHT22;9599;53.706;10.384;2023-07-20T15:13:25;20.40;99.90
18934;DHT22;9599;53.706;10.384;2023-07-20T15:15:54;20.60;99.90
18934;DHT22;9599;53.706;10.384;2023-07-20T15:18:22;20.50;99.90
18934;DHT22;9599;53.706;10.384;2023-07-20T15:21:11;20.20;99.90
18934;DHT22;9599;53.706;10.384;2023-07-20T15:23:40;20.10;99.90
18934;DHT22;9599;53.706;10.384;2023-07-20T15:26:08;19.70;99.90
18934;DHT22;9599;53.706;10.384;2023-07-20T15:28:37;19.70;99.90
18934;DHT22;9599;53.706;10.384;2023-07-20T15:31:05;19.80;99.90
18934;DHT22;9599;53.706;10.384;2023-07-20T15:33:33;20.00;99.90
18934;DHT22;9599;53.706;10.384;2023-07-20T15:36:01;20.20;99.90
18934;DHT22;9599;53.706;10.384;2023-07-20T15:38:30;20.50;99.90
18934;DHT22;9599;53.706;10.384;2023-07-20T15:41:00;20.50;99.90
18934;DHT22;9599;53.706;10.384;2023-07-20T15:43:28;20.50;99.90
18934;DHT22;9599;53.706;10.384;2023-07-20T15:46:02;20.50;99.90
18934;DHT22;9599;53.706;10.384;2023-07-20T15:48:35;20.40;99.90